createdAt,value
2023-04-25T00:02:01.146Z,6.96
2023-04-25T00:04:31.309Z,6.33
2023-04-25T00:07:02.635Z,6.63
2023-04-25T00:09:31.194Z,6.70
2023-04-25T00:11:59.019Z,6.69
2023-04-25T00:14:26.931Z,6.56
2023-04-25T00:16:55.344Z,6.25
2023-04-25T00:19:23.583Z,6.74
2023-04-25T00:21:51.546Z,6.66
2023-04-25T00:24:19.278Z,6.48
2023-04-25T00:26:47.088Z,6.72
2023-04-25T00:29:14.882Z,6.68
2023-04-25T00:31:42.746Z,6.74
2023-04-25T00:34:10.839Z,6.93
2023-04-25T00:36:39.500Z,6.82
2023-04-25T00:39:07.604Z,6.90
2023-04-25T00:41:35.860Z,6.57
2023-04-25T00:44:05.245Z,6.58
2023-04-25T00:46:33.487Z,6.67
2023-04-25T00:49:01.458Z,6.72
2023-04-25T00:51:29.604Z,6.72
2023-04-25T00:53:57.764Z,6.80
2023-04-25T00:56:26.230Z,6.88
2023-04-25T00:58:57.756Z,7.19
2023-04-25T01:01:26.093Z,7.03
2023-04-25T01:03:56.266Z,7.15
2023-04-25T01:06:24.900Z,7.40
2023-04-25T01:08:54.138Z,7.00
2023-04-25T01:11:22.417Z,6.83
2023-04-25T01:13:51.041Z,7.08
2023-04-25T01:16:19.292Z,7.09
2023-04-25T01:18:48.463Z,7.44
2023-04-25T01:21:16.549Z,6.89
2023-04-25T01:23:44.538Z,7.55
2023-04-25T01:26:13.469Z,7.98
2023-04-25T01:28:42.560Z,7.64
2023-04-25T01:31:14.132Z,7.60
2023-04-25T01:33:42.013Z,7.76
2023-04-25T01:36:10.214Z,7.62
2023-04-25T01:38:38.075Z,7.25
2023-04-25T01:41:07.189Z,7.25
2023-04-25T01:43:35.399Z,7.25
2023-04-25T01:46:03.439Z,7.18
2023-04-25T01:48:31.662Z,7.26
2023-04-25T01:51:00.004Z,7.19
2023-04-25T01:53:29.858Z,6.61
2023-04-25T01:55:58.018Z,6.70
2023-04-25T01:58:28.567Z,6.93
2023-04-25T02:01:06.478Z,6.95
2023-04-25T02:03:42.311Z,7.37
2023-04-25T02:06:18.424Z,6.92
2023-04-25T02:08:48.022Z,7.03
2023-04-25T02:11:17.899Z,7.10
2023-04-25T02:13:54.574Z,6.96
2023-04-25T02:17:01.151Z,6.62
2023-04-25T02:19:31.804Z,6.62
2023-04-25T02:21:59.794Z,7.18
2023-04-25T02:24:29.005Z,6.94
2023-04-25T02:26:57.923Z,7.01
2023-04-25T02:29:25.730Z,7.28
2023-04-25T02:31:53.681Z,7.14
2023-04-25T02:34:21.878Z,7.12
2023-04-25T02:36:52.275Z,7.24
2023-04-25T02:39:20.330Z,6.62
2023-04-25T02:41:48.181Z,7.22
2023-04-25T02:44:16.070Z,7.28
2023-04-25T02:46:46.565Z,6.66
2023-04-25T02:49:14.505Z,6.93
2023-04-25T02:51:42.361Z,6.86
2023-04-25T02:54:10.144Z,6.60
2023-04-25T02:56:42.138Z,7.00
2023-04-25T02:59:14.739Z,7.35
2023-04-25T03:01:42.682Z,7.13
2023-04-25T03:04:10.657Z,7.79
2023-04-25T03:06:38.967Z,7.49
2023-04-25T03:09:06.920Z,7.30
2023-04-25T03:11:34.757Z,6.90
2023-04-25T03:14:03.010Z,6.91
2023-04-25T03:16:31.401Z,7.42
2023-04-25T03:18:59.418Z,7.11
2023-04-25T03:21:27.721Z,7.00
2023-04-25T03:23:55.849Z,6.93
2023-04-25T03:26:23.782Z,6.64
2023-04-25T03:28:51.635Z,6.77
2023-04-25T03:31:20.238Z,7.03
2023-04-25T03:33:48.904Z,6.61
2023-04-25T03:36:18.120Z,6.62
2023-04-25T03:38:46.203Z,6.46
2023-04-25T03:41:17.129Z,6.52
2023-04-25T03:44:11.044Z,6.69
2023-04-25T03:46:39.119Z,6.48
2023-04-25T03:49:07.315Z,6.52
2023-04-25T03:51:53.938Z,6.50
2023-04-25T03:54:21.829Z,6.68
2023-04-25T03:57:10.058Z,6.60
2023-04-25T03:59:39.972Z,6.82
2023-04-25T04:02:10.219Z,6.83
2023-04-25T04:04:38.515Z,6.64
2023-04-25T04:07:07.650Z,6.59
2023-04-25T04:09:38.117Z,6.63
2023-04-25T04:12:10.285Z,6.85
2023-04-25T04:14:41.381Z,6.61
2023-04-25T04:17:09.235Z,6.71
2023-04-25T04:19:37.409Z,6.74
2023-04-25T04:22:11.141Z,7.23
2023-04-25T04:24:40.173Z,6.74
2023-04-25T04:27:09.576Z,6.85
2023-04-25T04:29:51.538Z,7.09
2023-04-25T04:32:31.684Z,6.94
2023-04-25T04:35:00.934Z,6.84
2023-04-25T04:37:28.967Z,7.53
2023-04-25T04:40:00.034Z,7.33
2023-04-25T04:42:40.369Z,7.17
2023-04-25T04:45:28.792Z,7.36
2023-04-25T04:48:23.068Z,6.96
2023-04-25T04:51:23.285Z,7.40
2023-04-25T04:54:20.493Z,7.19
2023-04-25T04:57:14.294Z,6.94
2023-04-25T05:00:06.809Z,7.07
2023-04-25T05:02:53.612Z,7.26
2023-04-25T05:05:46.920Z,6.98
2023-04-25T05:08:37.647Z,6.93
2023-04-25T05:11:25.545Z,6.86
2023-04-25T05:14:11.650Z,6.96
2023-04-25T05:16:59.547Z,7.43
2023-04-25T05:19:40.587Z,7.10
2023-04-25T05:22:27.474Z,7.57
2023-04-25T05:25:17.916Z,7.55
2023-04-25T05:27:59.404Z,7.48
2023-04-25T05:30:41.333Z,7.55
2023-04-25T05:33:17.724Z,7.43
2023-04-25T05:35:47.277Z,7.13
2023-04-25T05:38:16.158Z,7.31
2023-04-25T05:41:02.220Z,7.02
2023-04-25T05:43:40.611Z,6.96
2023-04-25T05:46:31.973Z,7.01
2023-04-25T05:49:19.619Z,7.33
2023-04-25T05:52:26.223Z,6.81
2023-04-25T05:55:06.903Z,6.61
2023-04-25T05:57:34.775Z,7.16
2023-04-25T06:00:03.400Z,6.70
2023-04-25T06:02:44.825Z,7.08
2023-04-25T06:05:15.548Z,6.59
2023-04-25T06:07:43.649Z,6.64
2023-04-25T06:10:11.681Z,6.41
2023-04-25T06:12:39.926Z,6.79
2023-04-25T06:15:19.974Z,6.71
2023-04-25T06:17:55.426Z,6.94
2023-04-25T06:20:25.553Z,7.10
2023-04-25T06:22:55.374Z,6.54
2023-04-25T06:25:30.520Z,6.85
2023-04-25T06:27:58.420Z,6.60
2023-04-25T06:30:26.888Z,6.50
2023-04-25T06:33:00.660Z,6.44
2023-04-25T06:35:30.158Z,6.59
2023-04-25T06:37:58.708Z,6.10
2023-04-25T06:40:27.755Z,6.03
2023-04-25T06:42:55.699Z,6.04
2023-04-25T06:45:52.005Z,5.45
2023-04-25T06:48:21.440Z,5.50
2023-04-25T06:50:49.274Z,5.88
2023-04-25T06:53:17.228Z,5.59
2023-04-25T06:55:48.209Z,5.57
2023-04-25T06:58:21.594Z,5.91
2023-04-25T07:01:03.970Z,5.52
2023-04-25T07:03:32.016Z,5.32
2023-04-25T07:06:04.971Z,5.31
2023-04-25T07:08:33.049Z,5.34
2023-04-25T07:11:01.343Z,5.61
2023-04-25T07:13:29.732Z,5.57
2023-04-25T07:15:58.096Z,5.44
2023-04-25T07:18:26.396Z,5.19
2023-04-25T07:20:54.405Z,5.26
2023-04-25T07:23:22.701Z,5.49
2023-04-25T07:25:50.845Z,5.62
2023-04-25T07:28:22.782Z,5.51
2023-04-25T07:30:50.679Z,5.18
2023-04-25T07:33:18.645Z,5.15
2023-04-25T07:35:46.653Z,5.24
2023-04-25T07:38:14.944Z,5.15
2023-04-25T07:40:43.012Z,4.93
2023-04-25T07:43:15.816Z,4.63
2023-04-25T07:45:50.813Z,4.92
2023-04-25T07:48:21.120Z,5.04
2023-04-25T07:50:50.470Z,4.48
2023-04-25T07:53:19.324Z,5.12
2023-04-25T07:55:53.819Z,4.67
2023-04-25T07:58:23.264Z,4.49
2023-04-25T08:01:01.230Z,4.43
2023-04-25T08:03:50.206Z,4.23
2023-04-25T08:06:33.015Z,4.17
2023-04-25T08:09:10.782Z,4.20
2023-04-25T08:11:41.421Z,4.33
2023-04-25T08:14:12.666Z,3.94
2023-04-25T08:16:42.123Z,4.33
2023-04-25T08:19:10.542Z,4.79
2023-04-25T08:21:38.311Z,4.78
2023-04-25T08:24:10.648Z,4.45
2023-04-25T08:26:40.889Z,3.88
2023-04-25T08:29:09.847Z,3.80
2023-04-25T08:31:41.037Z,3.56
2023-04-25T08:34:12.214Z,3.79
2023-04-25T08:36:51.022Z,3.46
2023-04-25T08:39:28.731Z,3.60
2023-04-25T08:42:20.448Z,3.69
2023-04-25T08:44:50.502Z,3.51
2023-04-25T08:47:24.487Z,3.85
2023-04-25T08:49:59.391Z,3.69
2023-04-25T08:52:36.572Z,3.51
2023-04-25T08:55:05.745Z,3.16
2023-04-25T08:57:35.898Z,3.31
2023-04-25T09:00:04.836Z,3.33
2023-04-25T09:02:35.602Z,3.47
2023-04-25T09:05:07.991Z,3.80
2023-04-25T09:07:39.043Z,3.38
2023-04-25T09:10:07.933Z,3.15
2023-04-25T09:12:38.864Z,3.43
2023-04-25T09:15:12.375Z,3.54
2023-04-25T09:18:00.176Z,3.73
2023-04-25T09:23:13.516Z,3.49
2023-04-25T09:25:41.365Z,3.63
2023-04-25T09:28:12.084Z,4.03
2023-04-25T09:30:40.308Z,3.81
2023-04-25T09:33:14.679Z,3.91
2023-04-25T09:35:53.980Z,3.90
2023-04-25T09:38:47.536Z,3.82
2023-04-25T09:41:28.958Z,4.01
2023-04-25T09:44:02.018Z,4.34
2023-04-25T09:46:40.016Z,4.26
2023-04-25T09:49:18.483Z,4.74
2023-04-25T09:52:01.979Z,4.39
2023-04-25T09:54:39.068Z,4.53
2023-04-25T09:57:23.884Z,4.17
2023-04-25T09:59:57.285Z,4.43
2023-04-25T10:02:28.750Z,4.97
2023-04-25T10:05:11.755Z,4.55
2023-04-25T10:07:43.064Z,4.37
2023-04-25T10:10:16.530Z,4.17
2023-04-25T10:12:45.700Z,4.12
2023-04-25T10:15:16.284Z,3.77
2023-04-25T10:17:46.015Z,4.01
2023-04-25T10:20:15.497Z,4.02
2023-04-25T10:22:45.954Z,3.97
2023-04-25T10:25:15.696Z,4.14
2023-04-25T10:27:43.572Z,4.21
2023-04-25T10:30:16.844Z,4.19
2023-04-25T10:32:46.644Z,4.45
2023-04-25T10:35:29.944Z,4.41
2023-04-25T10:38:16.370Z,4.40
2023-04-25T10:41:03.822Z,4.19
2023-04-25T10:43:46.410Z,4.17
2023-04-25T10:46:24.637Z,3.82
2023-04-25T10:49:00.899Z,4.02
2023-04-25T10:51:43.312Z,3.98
2023-04-25T10:54:21.305Z,4.18
2023-04-25T10:56:52.013Z,4.19
2023-04-25T10:59:22.630Z,4.11
2023-04-25T11:01:58.638Z,4.24
2023-04-25T11:04:32.031Z,4.30
2023-04-25T11:07:11.655Z,4.15
2023-04-25T11:09:42.906Z,4.26
2023-04-25T11:12:16.173Z,4.81
2023-04-25T11:14:44.252Z,4.48
2023-04-25T11:17:12.505Z,4.82
2023-04-25T11:19:40.471Z,4.41
2023-04-25T11:22:08.969Z,4.01
2023-04-25T11:24:38.087Z,3.51
2023-04-25T11:27:07.330Z,3.44
2023-04-25T11:29:36.456Z,3.07
2023-04-25T11:32:04.554Z,3.19
2023-04-25T11:34:36.220Z,3.23
2023-04-25T11:37:07.204Z,3.24
2023-04-25T11:39:35.931Z,3.26
2023-04-25T11:42:06.303Z,3.33
2023-04-25T11:44:36.087Z,3.48
2023-04-25T11:47:03.967Z,3.51
2023-04-25T11:49:36.240Z,3.38
2023-04-25T11:52:04.362Z,3.44
2023-04-25T11:54:32.315Z,3.51
2023-04-25T11:57:00.380Z,3.32
2023-04-25T11:59:28.889Z,3.08
2023-04-25T12:01:56.887Z,3.10
2023-04-25T12:04:27.308Z,3.61
2023-04-25T12:06:56.804Z,3.41
2023-04-25T12:09:35.135Z,3.14
2023-04-25T12:12:04.223Z,3.34
2023-04-25T12:14:35.023Z,3.29
2023-04-25T12:17:05.399Z,2.85
2023-04-25T12:19:41.676Z,2.57
2023-04-25T12:22:26.294Z,2.69
2023-04-25T12:24:55.357Z,2.80
2023-04-25T12:27:23.315Z,2.97
2023-04-25T12:29:57.005Z,3.14
2023-04-25T12:32:25.193Z,3.33
2023-04-25T12:34:53.103Z,2.85
2023-04-25T12:37:21.332Z,3.25
2023-04-25T12:39:49.056Z,3.38
2023-04-25T12:42:16.726Z,3.11
2023-04-25T12:44:44.597Z,2.86
2023-04-25T12:47:12.981Z,3.05
2023-04-25T12:49:40.840Z,3.26
2023-04-25T12:52:08.577Z,3.21
2023-04-25T12:54:36.499Z,3.44
2023-04-25T12:57:04.406Z,3.08
2023-04-25T12:59:32.392Z,3.26
2023-04-25T13:02:00.645Z,3.27
2023-04-25T13:04:29.106Z,3.22
2023-04-25T13:06:57.259Z,2.86
2023-04-25T13:09:25.146Z,3.41
2023-04-25T13:11:56.086Z,3.28
2023-04-25T13:14:25.360Z,2.99
2023-04-25T13:16:53.350Z,3.24
2023-04-25T13:19:21.393Z,2.86
2023-04-25T13:21:49.212Z,2.87
2023-04-25T13:24:17.157Z,2.80
2023-04-25T13:26:45.517Z,2.95
2023-04-25T13:29:13.313Z,2.75
2023-04-25T13:31:41.231Z,2.85
2023-04-25T13:34:09.766Z,2.84
2023-04-25T13:36:37.661Z,2.97
2023-04-25T13:39:06.347Z,2.81
2023-04-25T13:41:34.382Z,3.05
2023-04-25T13:44:02.225Z,2.74
2023-04-25T13:46:45.558Z,3.06
2023-04-25T13:49:14.549Z,2.70
2023-04-25T13:51:43.594Z,2.80
2023-04-25T13:54:11.850Z,2.56
2023-04-25T13:56:39.912Z,2.61
2023-04-25T13:59:08.043Z,2.57
2023-04-25T14:01:36.891Z,2.40
2023-04-25T14:04:05.478Z,2.65
2023-04-25T14:06:34.278Z,2.67
2023-04-25T14:09:02.433Z,2.72
2023-04-25T14:11:30.960Z,2.79
2023-04-25T14:13:58.929Z,3.09
2023-04-25T14:16:27.085Z,3.22
2023-04-25T14:18:55.742Z,2.90
2023-04-25T14:21:23.680Z,2.89
2023-04-25T14:23:52.368Z,3.12
2023-04-25T14:26:21.035Z,3.16
2023-04-25T14:28:48.956Z,3.05
2023-04-25T14:31:17.083Z,3.40
2023-04-25T14:33:44.901Z,3.41
2023-04-25T14:36:12.792Z,3.27
2023-04-25T14:38:40.967Z,3.23
2023-04-25T14:41:08.940Z,2.95
2023-04-25T14:43:37.663Z,2.93
2023-04-25T14:46:05.931Z,2.98
2023-04-25T14:48:34.362Z,2.92
2023-04-25T14:51:02.390Z,3.14
2023-04-25T14:53:32.578Z,2.84
2023-04-25T14:56:00.714Z,3.18
2023-04-25T14:58:28.943Z,2.97
2023-04-25T15:00:57.283Z,2.88
2023-04-25T15:03:25.533Z,2.86
2023-04-25T15:05:54.120Z,3.00
2023-04-25T15:08:21.899Z,2.85
2023-04-25T15:10:50.012Z,2.51
2023-04-25T15:13:19.267Z,2.65
2023-04-25T15:15:52.173Z,2.57
2023-04-25T15:18:25.931Z,2.72
2023-04-25T15:20:54.542Z,2.66
2023-04-25T15:23:23.155Z,2.38
2023-04-25T15:25:53.647Z,2.56
2023-04-25T15:28:22.479Z,2.46
2023-04-25T15:30:51.530Z,2.49
2023-04-25T15:33:19.490Z,2.49
2023-04-25T15:35:47.339Z,2.87
2023-04-25T15:38:15.157Z,2.43
2023-04-25T15:40:43.002Z,2.36
2023-04-25T15:43:16.412Z,2.35
2023-04-25T15:45:45.750Z,2.01
2023-04-25T15:48:13.999Z,2.16
2023-04-25T15:50:42.561Z,1.94
2023-04-25T15:53:11.453Z,2.03
2023-04-25T15:55:39.752Z,2.63
2023-04-25T15:58:08.629Z,2.36
2023-04-25T16:00:38.032Z,2.46
2023-04-25T16:03:06.169Z,2.23
2023-04-25T16:05:34.183Z,1.96
2023-04-25T16:08:02.331Z,2.11
2023-04-25T16:10:30.277Z,2.37
2023-04-25T16:12:58.239Z,2.39
2023-04-25T16:15:26.182Z,2.10
2023-04-25T16:17:54.034Z,1.68
2023-04-25T16:20:22.253Z,1.99
2023-04-25T16:22:50.072Z,1.90
2023-04-25T16:25:17.839Z,1.84
2023-04-25T16:27:45.596Z,1.66
2023-04-25T16:30:14.290Z,1.87
2023-04-25T16:32:45.261Z,1.99
2023-04-25T16:35:14.754Z,2.21
2023-04-25T16:37:42.791Z,2.04
2023-04-25T16:40:11.022Z,1.87
2023-04-25T16:42:39.054Z,2.13
2023-04-25T16:45:07.588Z,2.09
2023-04-25T16:47:36.125Z,1.95
2023-04-25T16:50:04.582Z,1.88
2023-04-25T16:52:32.465Z,2.14
2023-04-25T16:55:00.450Z,2.04
2023-04-25T16:57:28.608Z,2.43
2023-04-25T16:59:56.806Z,2.26
2023-04-25T17:02:24.778Z,1.96
2023-04-25T17:04:53.291Z,2.09
2023-04-25T17:07:24.489Z,2.34
2023-04-25T17:09:52.584Z,2.32
2023-04-25T17:12:21.650Z,2.12
2023-04-25T17:14:50.393Z,1.92
2023-04-25T17:17:19.671Z,2.07
2023-04-25T17:19:47.410Z,1.94
2023-04-25T17:22:15.275Z,2.39
2023-04-25T17:24:43.158Z,4.41
2023-04-25T17:27:11.785Z,4.19
2023-04-25T17:29:39.441Z,2.85
2023-04-25T17:32:07.561Z,2.97
2023-04-25T17:34:37.654Z,2.70
2023-04-25T17:37:06.076Z,2.69
2023-04-25T17:39:34.063Z,2.51
2023-04-25T17:42:02.568Z,2.85
2023-04-25T17:44:30.713Z,3.06
2023-04-25T17:46:58.643Z,2.50
2023-04-25T17:49:26.468Z,2.89
2023-04-25T17:51:54.262Z,2.71
2023-04-25T17:54:22.892Z,2.71
2023-04-25T17:56:50.885Z,2.95
2023-04-25T17:59:19.430Z,2.72
2023-04-25T18:01:48.322Z,3.03
2023-04-25T18:04:16.222Z,2.99
2023-04-25T18:06:44.386Z,3.00
2023-04-25T18:09:18.389Z,2.82
2023-04-25T18:11:47.062Z,3.68
2023-04-25T18:14:17.135Z,3.18
2023-04-25T18:16:46.056Z,3.22
2023-04-25T18:19:24.086Z,3.45
2023-04-25T18:21:57.193Z,3.63
2023-04-25T18:24:28.560Z,3.23
2023-04-25T18:27:00.633Z,3.65
2023-04-25T18:29:33.769Z,3.83
2023-04-25T18:32:05.042Z,3.47
2023-04-25T18:34:34.438Z,3.31
2023-04-25T18:37:02.711Z,3.37
2023-04-25T18:39:31.620Z,3.32
2023-04-25T18:42:04.758Z,4.04
2023-04-25T18:44:40.134Z,4.27
2023-04-25T18:47:13.221Z,4.01
2023-04-25T18:49:41.705Z,4.03
2023-04-25T18:52:11.893Z,3.46
2023-04-25T18:54:40.373Z,3.69
2023-04-25T18:57:08.276Z,3.39
2023-04-25T18:59:36.393Z,4.26
2023-04-25T19:02:05.482Z,3.67
2023-04-25T19:04:34.099Z,3.31
2023-04-25T19:07:02.377Z,3.03
2023-04-25T19:09:30.438Z,3.25
2023-04-25T19:11:58.416Z,3.39
2023-04-25T19:14:27.755Z,3.54
2023-04-25T19:16:55.617Z,3.49
2023-04-25T19:19:23.444Z,3.38
2023-04-25T19:21:52.705Z,3.26
2023-04-25T19:24:20.841Z,3.16
2023-04-25T19:26:48.680Z,3.73
2023-04-25T19:29:16.961Z,4.08
2023-04-25T19:31:46.324Z,4.44
2023-04-25T19:34:14.294Z,4.92
2023-04-25T19:36:44.246Z,4.41
2023-04-25T19:39:12.101Z,4.26
2023-04-25T19:41:40.083Z,4.23
2023-04-25T19:44:10.056Z,4.07
2023-04-25T19:46:38.769Z,3.36
2023-04-25T19:49:07.904Z,3.28
2023-04-25T19:51:37.229Z,3.14
2023-04-25T19:54:05.720Z,2.93
2023-04-25T19:56:33.884Z,2.99
2023-04-25T19:59:01.972Z,2.83
2023-04-25T20:01:30.642Z,2.95
2023-04-25T20:03:58.688Z,3.07
2023-04-25T20:06:27.367Z,3.25
2023-04-25T20:08:56.051Z,3.07
2023-04-25T20:11:24.160Z,3.27
2023-04-25T20:13:52.459Z,3.36
2023-04-25T20:16:21.813Z,3.30
2023-04-25T20:18:50.832Z,3.26
2023-04-25T20:21:19.401Z,3.34
2023-04-25T20:23:47.455Z,3.82
2023-04-25T20:26:15.949Z,3.08
2023-04-25T20:28:43.798Z,3.27
2023-04-25T20:31:12.142Z,3.20
2023-04-25T20:33:41.824Z,3.42
2023-04-25T20:36:10.070Z,3.56
2023-04-25T20:38:38.133Z,3.41
2023-04-25T20:41:05.975Z,3.59
2023-04-25T20:43:34.185Z,3.37
2023-04-25T20:46:02.141Z,3.65
2023-04-25T20:48:29.981Z,3.45
2023-04-25T20:51:00.702Z,3.47
2023-04-25T20:53:28.470Z,3.69
2023-04-25T20:55:56.441Z,3.50
2023-04-25T20:58:24.218Z,3.70
2023-04-25T21:00:52.338Z,3.61
2023-04-25T21:03:20.964Z,3.69
2023-04-25T21:05:49.106Z,3.87
2023-04-25T21:08:17.585Z,3.90
2023-04-25T21:10:45.560Z,3.77
2023-04-25T21:13:13.479Z,3.85
2023-04-25T21:15:41.363Z,3.95
2023-04-25T21:18:09.400Z,3.82
2023-04-25T21:20:37.422Z,4.17
2023-04-25T21:23:05.336Z,4.37
2023-04-25T21:25:33.424Z,4.32
2023-04-25T21:28:02.958Z,4.40
2023-04-25T21:30:31.691Z,4.46
2023-04-25T21:32:59.667Z,4.58
2023-04-25T21:35:27.769Z,4.26
2023-04-25T21:37:55.786Z,4.67
2023-04-25T21:40:23.777Z,4.47
2023-04-25T21:42:53.626Z,4.19
2023-04-25T21:45:21.918Z,4.37
2023-04-25T21:47:50.765Z,4.32
2023-04-25T21:50:19.822Z,4.16
2023-04-25T21:52:48.476Z,4.34
2023-04-25T21:55:17.333Z,4.09
2023-04-25T21:57:45.119Z,3.94
2023-04-25T22:00:25.031Z,4.14
2023-04-25T22:02:53.842Z,4.02
2023-04-25T22:05:23.622Z,3.89
2023-04-25T22:07:53.201Z,3.68
2023-04-25T22:10:23.067Z,3.71
2023-04-25T22:12:51.172Z,4.05
2023-04-25T22:15:21.487Z,3.89
2023-04-25T22:17:55.509Z,3.61
2023-04-25T22:20:26.596Z,3.64
2023-04-25T22:22:56.579Z,3.61
2023-04-25T22:25:25.109Z,3.72
2023-04-25T22:27:53.120Z,3.89
2023-04-25T22:30:21.963Z,3.76
2023-04-25T22:32:49.792Z,3.45
2023-04-25T22:35:17.773Z,3.95
2023-04-25T22:37:45.508Z,3.97
2023-04-25T22:40:13.690Z,3.56
2023-04-25T22:42:42.468Z,3.58
2023-04-25T22:45:11.532Z,3.78
2023-04-25T22:47:40.295Z,3.52
2023-04-25T22:50:13.485Z,3.87
2023-04-25T22:52:42.685Z,3.67
2023-04-25T22:55:12.476Z,3.64
2023-04-25T22:57:40.866Z,3.81
2023-04-25T23:00:30.913Z,3.93
2023-04-25T23:02:59.304Z,3.84
2023-04-25T23:05:27.570Z,4.07
2023-04-25T23:07:55.239Z,4.03
2023-04-25T23:10:23.413Z,4.07
2023-04-25T23:12:52.136Z,4.13
2023-04-25T23:15:20.872Z,3.72
2023-04-25T23:17:48.635Z,4.00
2023-04-25T23:20:16.513Z,4.16
2023-04-25T23:22:44.459Z,4.43
2023-04-25T23:25:13.054Z,4.25
2023-04-25T23:27:41.037Z,4.43
2023-04-25T23:30:10.262Z,4.13
2023-04-25T23:32:39.036Z,4.29
2023-04-25T23:35:07.927Z,4.18
2023-04-25T23:37:40.311Z,4.42
2023-04-25T23:40:15.598Z,4.17
2023-04-25T23:42:43.603Z,4.50
2023-04-25T23:45:11.511Z,4.50
2023-04-25T23:47:39.804Z,4.59
2023-04-25T23:50:08.181Z,4.92
2023-04-25T23:52:36.205Z,5.01
2023-04-25T23:55:05.560Z,5.26
2023-04-25T23:57:33.946Z,5.22
